Time;durP1;ratioP1;P1;durP2;ratioP2;P2;SDS_P1;SDS_P2;PMS_P1;PMS_P2;Temp;Humidity;BMP_temperature;BMP_pressure;BME280_temperature;BME280_humidity;BME280_pressure;Samples;Min_cycle;Max_cycle;Signal;HPM_P1;HPM_P2
2021/01/23 00:01:35;;;;;;;1.80;1.60;;;19.60;48.00;;;;;;5066194;28;20032;-65
2021/01/23 00:04:00;;;;;;;2.70;1.88;;;19.60;48.00;;;;;;5066354;28;20110;-65
2021/01/23 00:06:26;;;;;;;3.53;1.50;;;19.60;48.00;;;;;;5066470;28;20032;-67
2021/01/23 00:08:51;;;;;;;2.22;1.60;;;19.60;48.00;;;;;;5065234;28;20514;-65
2021/01/23 00:11:17;;;;;;;2.58;1.38;;;19.60;48.00;;;;;;5065943;28;20037;-65
2021/01/23 00:13:42;;;;;;;1.50;1.40;;;19.60;48.00;;;;;;5066126;28;20128;-62
2021/01/23 00:16:08;;;;;;;1.65;1.13;;;19.60;48.00;;;;;;5065934;28;20051;-62
2021/01/23 00:18:33;;;;;;;2.00;1.58;;;19.60;47.90;;;;;;5065358;28;20155;-65
2021/01/23 00:20:59;;;;;;;1.67;1.58;;;19.60;47.90;;;;;;5065902;28;20033;-65
2021/01/23 00:23:24;;;;;;;2.47;1.85;;;19.60;47.90;;;;;;5065563;28;20684;-65
2021/01/23 00:25:50;;;;;;;2.58;1.50;;;19.60;47.80;;;;;;5064974;28;20086;-65
2021/01/23 00:28:15;;;;;;;1.85;1.67;;;19.70;47.80;;;;;;5065775;28;20070;-65
2021/01/23 00:30:41;;;;;;;2.08;1.42;;;19.60;47.80;;;;;;5027054;28;20033;-64
2021/01/23 00:33:06;;;;;;;1.95;1.30;;;19.60;47.80;;;;;;5060969;28;20134;-66
2021/01/23 00:35:32;;;;;;;1.60;1.30;;;19.60;47.80;;;;;;5065628;28;20036;-62
2021/01/23 00:37:58;;;;;;;1.42;1.30;;;19.70;47.80;;;;;;5047666;28;20145;-65
2021/01/23 00:40:24;;;;;;;1.77;1.50;;;19.70;47.70;;;;;;5064892;28;20404;-64
2021/01/23 00:42:50;;;;;;;1.50;1.15;;;19.60;47.60;;;;;;5065646;28;20055;-65
2021/01/23 00:45:15;;;;;;;1.45;1.13;;;19.70;47.70;;;;;;5064708;28;20554;-65
2021/01/23 00:47:41;;;;;;;1.80;1.30;;;19.70;47.70;;;;;;5065033;28;20036;-65
2021/01/23 00:50:07;;;;;;;2.30;1.23;;;19.70;47.70;;;;;;5064877;28;20029;-64
2021/01/23 00:52:32;;;;;;;1.40;1.20;;;19.70;47.70;;;;;;5046965;28;20109;-65
2021/01/23 00:54:58;;;;;;;2.42;1.00;;;19.60;47.60;;;;;;5065606;28;20064;-65
2021/01/23 00:57:23;;;;;;;1.77;1.30;;;19.60;47.60;;;;;;5047760;28;20044;-64
2021/01/23 00:59:49;;;;;;;2.17;1.40;;;19.70;47.60;;;;;;5064691;28;20123;-64
2021/01/23 01:02:14;;;;;;;1.92;1.42;;;19.60;47.50;;;;;;5065162;28;20043;-65
2021/01/23 01:04:40;;;;;;;1.60;1.50;;;19.60;47.50;;;;;;5030437;28;20706;-64
2021/01/23 01:07:05;;;;;;;1.73;1.33;;;19.60;47.50;;;;;;5064430;28;20713;-65
2021/01/23 01:09:31;;;;;;;2.60;1.45;;;19.60;47.50;;;;;;5064813;28;20040;-66
2021/01/23 01:11:56;;;;;;;2.22;2.03;;;19.60;47.50;;;;;;5065216;28;20094;-65
2021/01/23 01:14:22;;;;;;;1.77;1.67;;;19.60;47.50;;;;;;5063719;28;20024;-65
2021/01/23 01:16:47;;;;;;;1.95;1.75;;;19.60;47.50;;;;;;5064734;28;20032;-62
2021/01/23 01:19:13;;;;;;;1.65;1.48;;;19.60;47.50;;;;;;5065177;28;20056;-64
2021/01/23 01:21:38;;;;;;;2.13;1.88;;;19.60;47.40;;;;;;5063897;28;20032;-64
2021/01/23 01:24:04;;;;;;;1.70;1.60;;;19.60;47.40;;;;;;5064313;28;20028;-65
2021/01/23 01:26:30;;;;;;;4.45;1.50;;;19.60;47.40;;;;;;5064952;28;20056;-65
2021/01/23 01:28:55;;;;;;;2.55;1.60;;;19.60;47.40;;;;;;5064290;28;20097;-65
2021/01/23 01:31:21;;;;;;;1.77;1.60;;;19.60;47.40;;;;;;5064475;28;20082;-65
2021/01/23 01:33:47;;;;;;;1.55;1.45;;;19.60;47.40;;;;;;5064194;28;20758;-63
2021/01/23 01:36:12;;;;;;;2.22;1.73;;;19.70;47.40;;;;;;5045972;28;20055;-65
2021/01/23 01:38:38;;;;;;;2.15;1.58;;;19.60;47.40;;;;;;5064484;28;20086;-65
2021/01/23 01:41:03;;;;;;;1.80;1.33;;;19.70;47.40;;;;;;5064462;28;20052;-65
2021/01/23 01:43:29;;;;;;;1.52;1.42;;;19.70;47.40;;;;;;5064790;28;20017;-64
2021/01/23 01:45:55;;;;;;;1.40;1.30;;;19.60;47.30;;;;;;5063294;28;20028;-64
2021/01/23 01:48:20;;;;;;;2.15;1.77;;;19.60;47.40;;;;;;5046585;28;20020;-64
2021/01/23 01:50:46;;;;;;;1.88;1.67;;;19.70;47.40;;;;;;5045343;28;20036;-65
2021/01/23 01:53:11;;;;;;;1.77;1.67;;;19.60;47.30;;;;;;5021136;28;20407;-65
2021/01/23 01:55:37;;;;;;;1.50;1.38;;;19.70;47.40;;;;;;5046348;28;20048;-64
2021/01/23 01:58:02;;;;;;;1.95;1.77;;;19.70;47.30;;;;;;5030005;28;20111;-65
2021/01/23 02:00:28;;;;;;;1.45;1.20;;;19.70;47.30;;;;;;5063580;28;20530;-64
2021/01/23 02:03:26;;;;;;;1.48;1.38;;;19.70;47.30;;;;;;5063952;28;20063;-65
2021/01/23 02:06:29;;;;;;;2.15;1.75;;;19.70;47.30;;;;;;5047571;28;20044;-65
2021/01/23 02:09:16;;;;;;;1.63;1.52;;;19.70;47.40;;;;;;5063443;28;20033;-68
2021/01/23 02:12:12;;;;;;;1.58;1.40;;;19.60;47.30;;;;;;5045779;28;20103;-67
2021/01/23 02:14:44;;;;;;;2.13;1.95;;;19.60;47.40;;;;;;5063599;28;20025;-65
2021/01/23 02:17:11;;;;;;;2.08;1.73;;;19.60;47.40;;;;;;5046118;28;20032;-65
2021/01/23 02:20:03;;;;;;;1.40;1.30;;;19.60;47.40;;;;;;5043742;28;20478;-64
2021/01/23 02:22:56;;;;;;;1.73;1.60;;;19.60;47.30;;;;;;5038099;28;20039;-65
2021/01/23 02:25:22;;;;;;;1.90;1.70;;;19.60;47.90;;;;;;5062772;28;20024;-65
2021/01/23 02:28:08;;;;;;;1.92;1.63;;;19.60;47.30;;;;;;5045311;28;20583;-65
2021/01/23 02:30:45;;;;;;;1.95;1.42;;;19.60;47.30;;;;;;5039350;28;20052;-65
2021/01/23 02:33:10;;;;;;;1.88;1.52;;;19.60;47.30;;;;;;5061982;28;21272;-64
2021/01/23 02:35:36;;;;;;;2.17;1.75;;;19.50;47.20;;;;;;5030083;28;20119;-64
2021/01/23 02:38:01;;;;;;;1.75;1.60;;;19.50;47.20;;;;;;5031150;28;20032;-62
2021/01/23 02:40:26;;;;;;;1.60;1.50;;;19.50;47.20;;;;;;5047760;28;20036;-64
2021/01/23 02:42:53;;;;;;;2.03;1.42;;;19.50;47.20;;;;;;5045610;28;20067;-65
2021/01/23 02:45:18;;;;;;;2.78;1.92;;;19.50;47.20;;;;;;5045243;28;20036;-64
2021/01/23 02:47:46;;;;;;;2.13;1.92;;;19.50;47.20;;;;;;5063590;28;20094;-64
2021/01/23 02:50:12;;;;;;;3.08;1.30;;;19.50;47.20;;;;;;5046048;28;20024;-64
2021/01/23 02:52:52;;;;;;;2.80;1.50;;;19.50;47.20;;;;;;5046029;28;20582;-65
2021/01/23 02:55:22;;;;;;;1.50;1.35;;;19.50;47.20;;;;;;5028151;28;21632;-65
2021/01/23 02:57:48;;;;;;;2.03;1.50;;;19.50;47.20;;;;;;5044981;28;20119;-64
2021/01/23 03:00:15;;;;;;;1.90;1.60;;;19.50;47.20;;;;;;5044720;28;20051;-65
2021/01/23 03:02:54;;;;;;;1.38;1.20;;;19.50;47.20;;;;;;5045176;28;20503;-63
2021/01/23 03:05:22;;;;;;;1.45;1.35;;;19.50;47.20;;;;;;5046046;28;20035;-64
2021/01/23 03:07:51;;;;;;;1.80;1.30;;;19.50;47.20;;;;;;5045307;28;20032;-65
2021/01/23 03:10:16;;;;;;;1.35;1.15;;;19.60;47.20;;;;;;5062861;28;20033;-65
2021/01/23 03:12:42;;;;;;;1.45;1.35;;;19.50;47.20;;;;;;5063222;28;20045;-65
2021/01/23 03:15:08;;;;;;;1.65;1.50;;;19.60;47.30;;;;;;5063409;28;20028;-64
2021/01/23 03:17:33;;;;;;;1.90;1.45;;;19.50;47.20;;;;;;5062497;28;20653;-65
2021/01/23 03:19:59;;;;;;;1.52;1.27;;;19.50;47.30;;;;;;5063684;28;20033;-63
2021/01/23 03:22:24;;;;;;;2.05;1.20;;;19.50;47.30;;;;;;5062636;28;20040;-64
2021/01/23 03:24:50;;;;;;;1.40;1.10;;;19.60;47.30;;;;;;5062996;28;20033;-65
2021/01/23 03:27:15;;;;;;;2.67;1.50;;;19.60;48.00;;;;;;5062834;28;20037;-64
2021/01/23 03:29:41;;;;;;;1.58;1.23;;;19.60;47.30;;;;;;5063638;28;20059;-65
2021/01/23 03:32:06;;;;;;;2.70;1.33;;;19.60;47.30;;;;;;5062652;28;20036;-65
2021/01/23 03:34:32;;;;;;;2.10;1.42;;;19.60;47.30;;;;;;5062947;28;20124;-65
2021/01/23 03:36:57;;;;;;;1.67;1.30;;;19.60;47.30;;;;;;5064152;28;20033;-64
2021/01/23 03:39:23;;;;;;;1.58;1.23;;;19.60;47.30;;;;;;5066086;28;20029;-64
2021/01/23 03:41:48;;;;;;;1.98;1.50;;;19.60;47.20;;;;;;5066509;28;20025;-64
2021/01/23 03:44:14;;;;;;;2.63;1.38;;;19.60;47.20;;;;;;5058318;28;20079;-65
2021/01/23 03:46:39;;;;;;;4.40;1.70;;;19.60;47.20;;;;;;5066580;28;20037;-65
2021/01/23 03:49:04;;;;;;;1.48;1.38;;;19.70;47.20;;;;;;5066848;28;20032;-64
2021/01/23 03:51:30;;;;;;;1.85;1.33;;;19.70;47.20;;;;;;5066309;28;20499;-65
2021/01/23 03:53:56;;;;;;;1.88;1.17;;;19.70;47.10;;;;;;5066320;28;20047;-65
2021/01/23 03:56:21;;;;;;;1.85;1.20;;;19.70;47.80;;;;;;5066462;28;20036;-65
2021/01/23 03:58:47;;;;;;;1.73;1.05;;;19.70;47.10;;;;;;5066966;28;20083;-63
2021/01/23 04:01:12;;;;;;;1.45;1.02;;;19.70;47.10;;;;;;5066496;28;20395;-64
2021/01/23 04:03:38;;;;;;;1.33;1.23;;;19.70;47.10;;;;;;5066115;28;20035;-64
2021/01/23 04:06:03;;;;;;;1.58;1.20;;;19.70;47.00;;;;;;5065899;28;20021;-65
2021/01/23 04:08:29;;;;;;;1.50;1.10;;;19.70;47.00;;;;;;5065718;28;20032;-65
2021/01/23 04:10:55;;;;;;;2.65;1.27;;;19.70;47.00;;;;;;5066309;28;20032;-66
2021/01/23 04:13:20;;;;;;;1.25;1.10;;;19.70;46.90;;;;;;5065883;28;20118;-64
2021/01/23 04:15:46;;;;;;;1.88;1.38;;;19.70;46.90;;;;;;5065351;28;20032;-66
2021/01/23 04:18:12;;;;;;;2.55;1.88;;;19.70;46.90;;;;;;5066464;28;20048;-65
2021/01/23 04:20:38;;;;;;;2.35;1.30;;;19.70;46.90;;;;;;5065871;28;20097;-65
2021/01/23 04:23:03;;;;;;;1.08;0.82;;;19.70;46.90;;;;;;5065908;28;20116;-62
2021/01/23 04:25:28;;;;;;;1.20;1.10;;;19.70;46.90;;;;;;5065989;28;20024;-65
2021/01/23 04:27:54;;;;;;;2.58;1.10;;;19.70;46.90;;;;;;5065389;28;20423;-65
2021/01/23 04:30:20;;;;;;;1.45;1.15;;;19.70;46.90;;;;;;5065485;28;20036;-62
2021/01/23 04:32:45;;;;;;;1.52;1.20;;;19.70;46.90;;;;;;5066284;28;20039;-65
2021/01/23 04:35:11;;;;;;;1.52;1.10;;;19.70;46.90;;;;;;5065742;28;20040;-65
2021/01/23 04:37:38;;;;;;;1.00;0.80;;;19.60;46.80;;;;;;5064530;28;20036;-65
2021/01/23 04:40:04;;;;;;;1.33;0.88;;;19.60;46.80;;;;;;5047039;28;20421;-65
2021/01/23 04:42:30;;;;;;;0.98;0.77;;;19.60;46.80;;;;;;5065292;28;20499;-65
2021/01/23 04:44:55;;;;;;;1.90;0.93;;;19.60;46.80;;;;;;5047061;28;20047;-65
2021/01/23 04:47:21;;;;;;;1.42;0.90;;;19.60;46.80;;;;;;5065082;28;20044;-65
2021/01/23 04:49:46;;;;;;;1.88;1.25;;;19.60;46.80;;;;;;5047316;28;20033;-65
2021/01/23 04:52:14;;;;;;;1.20;1.00;;;19.60;46.80;;;;;;5047058;28;20106;-65
2021/01/23 04:54:41;;;;;;;1.10;1.00;;;19.60;46.80;;;;;;5046940;28;20508;-65
2021/01/23 04:57:07;;;;;;;2.17;0.98;;;19.60;46.80;;;;;;5047322;28;20040;-64
2021/01/23 04:59:33;;;;;;;1.55;0.80;;;19.60;46.80;;;;;;5065196;28;20449;-65
2021/01/23 05:02:21;;;;;;;1.10;0.82;;;19.60;46.80;;;;;;5065544;28;20067;-65
2021/01/23 05:05:00;;;;;;;1.08;0.98;;;19.60;46.80;;;;;;5064937;28;20059;-65
2021/01/23 05:07:30;;;;;;;2.88;0.90;;;19.60;46.80;;;;;;5064544;28;20487;-64
2021/01/23 05:10:16;;;;;;;1.77;0.90;;;19.60;46.80;;;;;;5064728;28;20040;-65
2021/01/23 05:12:46;;;;;;;1.40;0.90;;;19.60;46.80;;;;;;5058077;28;20043;-65
2021/01/23 05:15:18;;;;;;;1.08;0.75;;;19.60;46.80;;;;;;5064823;28;20040;-64
2021/01/23 05:17:50;;;;;;;1.20;1.02;;;19.60;46.80;;;;;;5064839;28;20043;-65
2021/01/23 05:20:33;;;;;;;1.00;0.90;;;19.60;46.80;;;;;;5064861;28;20036;-64
2021/01/23 05:23:06;;;;;;;2.20;0.80;;;19.60;46.80;;;;;;5064353;28;20062;-64
2021/01/23 05:25:32;;;;;;;1.77;1.00;;;19.50;46.70;;;;;;5064682;28;20040;-65
2021/01/23 05:27:58;;;;;;;1.70;0.70;;;19.50;46.80;;;;;;5064503;28;20067;-65
2021/01/23 05:30:23;;;;;;;1.58;0.95;;;19.50;46.70;;;;;;5064850;28;20040;-66
2021/01/23 05:33:08;;;;;;;1.23;0.90;;;19.50;46.70;;;;;;5065069;28;20040;-65
2021/01/23 05:35:34;;;;;;;1.05;0.70;;;19.50;46.80;;;;;;5058775;28;20090;-65
2021/01/23 05:38:08;;;;;;;0.77;0.50;;;19.50;46.70;;;;;;5060181;28;20065;-65
2021/01/23 05:40:34;;;;;;;1.10;0.82;;;19.50;46.70;;;;;;5046688;28;20044;-65
2021/01/23 05:42:59;;;;;;;1.08;0.77;;;19.50;46.80;;;;;;5063914;28;20538;-64
2021/01/23 05:45:25;;;;;;;0.93;0.90;;;19.50;46.80;;;;;;5064043;28;20033;-65
2021/01/23 05:47:50;;;;;;;1.30;0.95;;;19.50;46.70;;;;;;5064522;28;20028;-65
2021/01/23 05:50:16;;;;;;;0.80;0.63;;;19.50;46.70;;;;;;5063895;28;20699;-65
2021/01/23 05:52:41;;;;;;;1.23;0.68;;;19.50;46.70;;;;;;5046515;28;20662;-64
2021/01/23 05:55:07;;;;;;;0.80;0.70;;;19.50;46.80;;;;;;5063465;28;20142;-64
2021/01/23 05:57:33;;;;;;;0.60;0.60;;;19.50;46.70;;;;;;5063807;28;20101;-65
2021/01/23 05:59:59;;;;;;;1.17;1.00;;;19.50;46.70;;;;;;5046038;28;20442;-65
2021/01/23 06:02:24;;;;;;;0.85;0.68;;;19.50;47.40;;;;;;5029093;28;20055;-63
2021/01/23 06:04:51;;;;;;;0.85;0.60;;;19.50;46.70;;;;;;5064170;28;20036;-64
2021/01/23 06:07:44;;;;;;;0.63;0.60;;;19.50;46.70;;;;;;5063417;28;20045;-64
2021/01/23 06:10:22;;;;;;;2.85;0.80;;;19.50;46.70;;;;;;5056328;28;20032;-64
2021/01/23 06:12:54;;;;;;;7.15;0.80;;;19.60;46.90;;;;;;5063847;28;20111;-63
2021/01/23 06:15:32;;;;;;;14.27;0.85;;;19.50;46.70;;;;;;5045532;28;20040;-64
2021/01/23 06:18:04;;;;;;;3.05;0.65;;;19.60;46.80;;;;;;5063761;28;20064;-64
2021/01/23 06:20:42;;;;;;;1.30;0.88;;;19.60;46.80;;;;;;5063905;28;20499;-64
2021/01/23 06:23:11;;;;;;;6.57;0.93;;;19.50;46.80;;;;;;5057116;28;20029;-63
2021/01/23 06:25:49;;;;;;;1.08;0.88;;;19.50;46.80;;;;;;5062905;28;20116;-64
2021/01/23 06:28:40;;;;;;;0.70;0.63;;;19.50;46.80;;;;;;5063480;28;20044;-65
2021/01/23 06:31:25;;;;;;;1.13;0.70;;;19.60;46.90;;;;;;5056383;28;20097;-62
2021/01/23 06:33:50;;;;;;;2.78;0.65;;;19.50;46.80;;;;;;5063526;28;20040;-64
2021/01/23 06:36:16;;;;;;;0.88;0.55;;;19.50;46.80;;;;;;5045718;28;20028;-63
2021/01/23 06:39:19;;;;;;;0.50;0.50;;;19.50;46.70;;;;;;5063783;28;20032;-63
2021/01/23 06:41:44;;;;;;;3.88;0.75;;;19.50;46.70;;;;;;4971115;28;20047;-64
2021/01/23 06:44:10;;;;;;;0.93;0.77;;;19.50;46.60;;;;;;5039323;28;20433;-64
2021/01/23 06:46:37;;;;;;;2.88;0.70;;;19.60;46.70;;;;;;5062996;28;20048;-66
2021/01/23 06:49:04;;;;;;;1.40;0.57;;;19.60;46.70;;;;;;5063643;28;20123;-63
2021/01/23 06:51:29;;;;;;;0.80;0.50;;;19.50;46.60;;;;;;5062882;28;20506;-65
2021/01/23 06:54:13;;;;;;;2.83;0.70;;;19.50;46.60;;;;;;5062460;28;20032;-65
2021/01/23 06:56:43;;;;;;;0.60;0.40;;;19.50;46.50;;;;;;5062502;28;20524;-63
2021/01/23 06:59:30;;;;;;;0.43;0.43;;;19.50;46.50;;;;;;5062991;28;20044;-66
2021/01/23 07:01:59;;;;;;;2.38;0.65;;;19.50;46.50;;;;;;5063844;28;20028;-67
2021/01/23 07:04:28;;;;;;;0.82;0.40;;;19.50;46.50;;;;;;5063008;28;20048;-67
2021/01/23 07:06:54;;;;;;;0.60;0.55;;;19.50;46.50;;;;;;5063034;28;20652;-66
2021/01/23 07:09:20;;;;;;;1.75;0.40;;;19.50;46.40;;;;;;5062587;28;20029;-67
2021/01/23 07:11:46;;;;;;;0.75;0.60;;;19.50;46.30;;;;;;5063944;28;20036;-67
2021/01/23 07:14:11;;;;;;;0.43;0.43;;;19.50;46.40;;;;;;5066678;28;20162;-66
2021/01/23 07:16:38;;;;;;;0.90;0.40;;;19.50;46.30;;;;;;5067029;28;20043;-66
2021/01/23 07:19:06;;;;;;;0.63;0.30;;;19.50;46.30;;;;;;5066798;28;20037;-66
2021/01/23 07:21:33;;;;;;;0.50;0.50;;;19.50;46.20;;;;;;5067500;28;20040;-67
2021/01/23 07:23:59;;;;;;;0.30;0.30;;;19.50;46.20;;;;;;5066760;28;20043;-67
2021/01/23 07:26:24;;;;;;;0.40;0.30;;;19.50;46.20;;;;;;5066308;28;20032;-65
2021/01/23 07:28:51;;;;;;;0.55;0.40;;;19.50;46.20;;;;;;5049375;28;20107;-66
2021/01/23 07:31:27;;;;;;;0.43;0.35;;;19.50;46.10;;;;;;5066903;28;20033;-66
2021/01/23 07:33:53;;;;;;;0.55;0.30;;;19.50;46.20;;;;;;5067020;28;24593;-66
2021/01/23 07:36:31;;;;;;;0.70;0.43;;;19.50;46.20;;;;;;5065560;28;20032;-63
2021/01/23 07:38:56;;;;;;;1.33;0.60;;;19.50;46.10;;;;;;5066007;28;20075;-66
2021/01/23 07:41:22;;;;;;;0.63;0.40;;;19.50;46.10;;;;;;5066841;28;20024;-65
2021/01/23 07:43:48;;;;;;;0.60;0.40;;;19.50;46.10;;;;;;5066714;28;20033;-66
2021/01/23 07:46:14;;;;;;;0.55;0.40;;;19.50;46.10;;;;;;5066442;28;20052;-66
2021/01/23 07:48:40;;;;;;;0.50;0.40;;;19.50;46.10;;;;;;5048390;28;20470;-68
2021/01/23 07:51:06;;;;;;;1.65;0.30;;;19.50;46.10;;;;;;5066617;28;20125;-67
2021/01/23 07:53:31;;;;;;;2.85;0.50;;;19.50;46.00;;;;;;5049277;28;20029;-66
2021/01/23 07:55:57;;;;;;;0.75;0.50;;;19.50;46.00;;;;;;5047602;28;20049;-66
2021/01/23 07:58:22;;;;;;;2.67;0.50;;;19.50;46.10;;;;;;5064842;28;20045;-65
2021/01/23 08:00:48;;;;;;;0.55;0.40;;;19.50;46.10;;;;;;5066531;28;20028;-65
2021/01/23 08:03:13;;;;;;;0.93;0.52;;;19.50;46.10;;;;;;5066036;28;20029;-65
2021/01/23 08:05:49;;;;;;;0.77;0.32;;;19.50;46.10;;;;;;5065143;28;20029;-65
2021/01/23 08:08:33;;;;;;;1.67;0.65;;;19.50;46.10;;;;;;5066364;28;20247;-66
2021/01/23 08:10:59;;;;;;;3.17;0.50;;;19.40;46.20;;;;;;5065915;28;20028;-66
2021/01/23 08:13:26;;;;;;;3.20;0.40;;;19.40;46.20;;;;;;5066234;28;20043;-66
2021/01/23 08:15:52;;;;;;;3.03;0.60;;;19.40;46.30;;;;;;5066195;28;20052;-66
2021/01/23 08:18:19;;;;;;;2.88;0.70;;;19.40;46.40;;;;;;5048307;28;20032;-66
2021/01/23 08:20:44;;;;;;;1.70;0.68;;;19.40;46.30;;;;;;5048540;28;20033;-66
2021/01/23 08:23:11;;;;;;;4.40;0.90;;;19.40;46.30;;;;;;5018902;28;20530;-66
2021/01/23 08:25:50;;;;;;;4.97;0.70;;;19.40;46.30;;;;;;5066237;28;20055;-66
2021/01/23 08:28:17;;;;;;;3.28;0.70;;;19.40;46.40;;;;;;5065757;28;20044;-65
2021/01/23 08:30:42;;;;;;;3.42;0.68;;;19.40;46.30;;;;;;5065675;28;20079;-67
2021/01/23 08:33:09;;;;;;;4.38;0.70;;;19.40;46.40;;;;;;5031094;28;20138;-67
2021/01/23 08:35:40;;;;;;;7.10;0.88;;;19.40;46.40;;;;;;5046661;28;20036;-66
2021/01/23 08:38:07;;;;;;;4.35;0.80;;;19.40;46.40;;;;;;5065726;28;20433;-65
2021/01/23 08:40:32;;;;;;;7.47;0.73;;;19.40;46.40;;;;;;5047977;28;20872;-66
2021/01/23 08:42:58;;;;;;;1.90;0.50;;;19.40;46.40;;;;;;5047950;28;20123;-66
2021/01/23 08:45:24;;;;;;;1.85;0.55;;;19.40;46.40;;;;;;5065248;28;20029;-65
2021/01/23 08:47:49;;;;;;;2.53;0.50;;;19.40;46.40;;;;;;5057140;28;20044;-67
2021/01/23 08:50:15;;;;;;;3.33;0.60;;;19.40;46.50;;;;;;5065221;28;20024;-69
2021/01/23 08:52:40;;;;;;;2.33;0.50;;;19.40;46.50;;;;;;5025576;28;20502;-68
2021/01/23 08:55:06;;;;;;;4.07;0.60;;;19.40;46.50;;;;;;5063126;28;20674;-64
2021/01/23 08:57:32;;;;;;;1.90;0.65;;;19.40;46.60;;;;;;5064871;28;20044;-69
2021/01/23 08:59:58;;;;;;;3.22;0.70;;;19.40;46.70;;;;;;5064684;28;20035;-67
2021/01/23 09:02:23;;;;;;;3.25;0.65;;;19.30;46.60;;;;;;5064866;28;20097;-66
2021/01/23 09:04:49;;;;;;;2.97;0.98;;;19.40;46.70;;;;;;5064726;28;20507;-66
2021/01/23 09:07:14;;;;;;;4.45;0.82;;;19.30;46.70;;;;;;5065057;28;20044;-65
2021/01/23 09:09:40;;;;;;;2.95;0.70;;;19.30;46.70;;;;;;5065699;28;20032;-66
2021/01/23 09:12:06;;;;;;;2.22;0.68;;;19.30;46.70;;;;;;5065160;28;20036;-67
2021/01/23 09:14:32;;;;;;;3.75;0.60;;;19.30;46.80;;;;;;5064755;28;20044;-67
2021/01/23 09:16:57;;;;;;;1.05;0.60;;;19.30;46.80;;;;;;5065129;28;20045;-66
2021/01/23 09:19:23;;;;;;;1.20;0.60;;;19.30;46.80;;;;;;5063756;28;20028;-66
2021/01/23 09:21:48;;;;;;;3.67;0.73;;;19.30;46.80;;;;;;5065249;28;20021;-65
2021/01/23 09:24:14;;;;;;;1.55;0.50;;;19.30;46.80;;;;;;5064175;28;20028;-67
2021/01/23 09:26:41;;;;;;;2.95;0.80;;;19.20;46.70;;;;;;5047712;28;20116;-67
2021/01/23 09:29:06;;;;;;;3.45;0.80;;;19.30;46.70;;;;;;5064789;28;20032;-67
2021/01/23 09:31:31;;;;;;;1.80;0.88;;;19.20;46.70;;;;;;5064292;28;20090;-67
2021/01/23 09:33:57;;;;;;;3.88;0.70;;;19.20;46.70;;;;;;5063913;28;20399;-68
2021/01/23 09:36:22;;;;;;;0.85;0.43;;;19.20;46.60;;;;;;5046173;28;20025;-67
2021/01/23 09:38:48;;;;;;;0.82;0.50;;;19.20;46.60;;;;;;5047144;28;20056;-66
2021/01/23 09:41:13;;;;;;;3.15;0.60;;;19.30;46.70;;;;;;5064781;28;20031;-69
2021/01/23 09:43:39;;;;;;;1.27;0.70;;;19.20;46.60;;;;;;5064670;28;20426;-68
2021/01/23 09:46:04;;;;;;;2.70;0.82;;;19.20;46.60;;;;;;5064046;28;20878;-66
2021/01/23 09:48:30;;;;;;;1.77;0.63;;;19.30;46.60;;;;;;5063640;28;20036;-65
2021/01/23 09:50:56;;;;;;;3.42;0.73;;;19.20;46.50;;;;;;5064077;28;20033;-66
2021/01/23 09:53:21;;;;;;;2.97;0.57;;;19.20;46.50;;;;;;5046053;28;20032;-65
2021/01/23 09:55:46;;;;;;;1.30;0.80;;;19.20;46.50;;;;;;5064080;28;20029;-65
2021/01/23 09:58:12;;;;;;;2.42;0.75;;;19.20;46.50;;;;;;5045292;28;20452;-66
2021/01/23 10:00:38;;;;;;;1.02;0.60;;;19.20;46.50;;;;;;5063844;28;20037;-65
2021/01/23 10:03:04;;;;;;;2.97;0.70;;;19.20;46.60;;;;;;5045492;28;20039;-66
2021/01/23 10:05:29;;;;;;;1.52;0.82;;;19.10;46.50;;;;;;5063714;28;20447;-66
2021/01/23 10:07:55;;;;;;;0.52;0.50;;;19.20;46.60;;;;;;5064324;28;20032;-66
2021/01/23 10:10:20;;;;;;;0.60;0.40;;;19.10;46.50;;;;;;5064102;28;20024;-64
2021/01/23 10:12:46;;;;;;;0.68;0.52;;;19.20;46.60;;;;;;5064572;28;20447;-62
2021/01/23 10:15:11;;;;;;;0.63;0.45;;;19.10;46.50;;;;;;5063854;28;20056;-67
2021/01/23 10:17:38;;;;;;;1.45;0.85;;;19.10;46.50;;;;;;5063638;28;20063;-66
2021/01/23 10:20:04;;;;;;;0.95;0.40;;;19.10;46.80;;;;;;5045992;28;20418;-65
2021/01/23 10:22:29;;;;;;;1.80;0.88;;;19.10;46.90;;;;;;5056063;28;20447;-66
2021/01/23 10:24:55;;;;;;;1.05;0.65;;;19.20;47.00;;;;;;5063823;28;20027;-64
2021/01/23 10:27:24;;;;;;;1.58;0.88;;;19.20;47.00;;;;;;5045933;28;20025;-66
2021/01/23 10:29:50;;;;;;;1.92;0.60;;;19.20;47.00;;;;;;5054916;28;20518;-66
2021/01/23 10:32:15;;;;;;;1.38;0.50;;;19.20;47.00;;;;;;5064154;28;20040;-65
2021/01/23 10:34:41;;;;;;;1.30;0.60;;;19.20;47.00;;;;;;5063670;28;20055;-64
2021/01/23 10:37:06;;;;;;;1.95;0.90;;;19.20;47.00;;;;;;5063933;28;20033;-65
2021/01/23 10:39:32;;;;;;;0.70;0.60;;;19.20;46.90;;;;;;5063297;28;20066;-65
2021/01/23 10:41:57;;;;;;;2.45;0.68;;;19.20;46.90;;;;;;5064630;28;20056;-63
2021/01/23 10:44:24;;;;;;;2.95;0.90;;;19.20;46.80;;;;;;5063565;28;20084;-64
2021/01/23 10:46:49;;;;;;;1.58;0.93;;;19.20;46.70;;;;;;5063035;28;20112;-64
2021/01/23 10:49:15;;;;;;;3.78;1.20;;;19.30;46.30;;;;;;5046546;28;20108;-66
2021/01/23 10:51:40;;;;;;;4.30;1.60;;;19.30;46.30;;;;;;5064415;28;20498;-65
2021/01/23 10:54:06;;;;;;;1.88;1.70;;;19.30;46.10;;;;;;5063688;28;20033;-64
2021/01/23 10:56:32;;;;;;;1.33;1.20;;;19.30;45.90;;;;;;5065595;28;20036;-66
2021/01/23 10:59:01;;;;;;;1.92;1.73;;;19.30;46.10;;;;;;5064156;28;20074;-65
2021/01/23 11:01:27;;;;;;;2.50;1.40;;;19.40;46.10;;;;;;5046347;28;20170;-64
2021/01/23 11:03:53;;;;;;;1.27;1.17;;;19.40;45.90;;;;;;5064012;28;20502;-65
2021/01/23 11:06:18;;;;;;;4.43;1.58;;;19.40;45.70;;;;;;5063892;28;20044;-63
2021/01/23 11:08:44;;;;;;;1.63;1.40;;;19.40;45.30;;;;;;5046217;28;20032;-65
2021/01/23 11:11:09;;;;;;;1.67;1.45;;;19.40;45.50;;;;;;5063921;28;20043;-67
2021/01/23 11:13:35;;;;;;;1.83;1.63;;;19.40;45.70;;;;;;5063912;28;20508;-66
2021/01/23 11:16:00;;;;;;;1.95;1.75;;;19.40;45.70;;;;;;5063689;28;20101;-66
2021/01/23 11:18:26;;;;;;;2.42;1.30;;;19.40;45.70;;;;;;5063339;28;20036;-66
2021/01/23 11:20:51;;;;;;;4.93;1.33;;;19.50;46.60;;;;;;5063833;28;20376;-67
2021/01/23 11:23:17;;;;;;;2.08;1.30;;;19.50;46.00;;;;;;5063569;28;20063;-67
2021/01/23 11:25:42;;;;;;;2.58;1.10;;;19.60;46.00;;;;;;5055354;28;20084;-68
2021/01/23 11:28:08;;;;;;;1.27;1.17;;;19.60;46.10;;;;;;5020338;28;20029;-65
2021/01/23 11:30:35;;;;;;;1.33;1.13;;;19.60;46.20;;;;;;5045054;28;20036;-65
2021/01/23 11:33:00;;;;;;;3.05;1.23;;;19.70;46.40;;;;;;5063508;28;20036;-66
2021/01/23 11:35:26;;;;;;;2.75;1.08;;;19.70;46.50;;;;;;5041954;28;20567;-65
2021/01/23 11:37:51;;;;;;;3.38;1.02;;;19.70;46.70;;;;;;5064197;28;20571;-66
2021/01/23 11:40:17;;;;;;;3.45;1.50;;;19.70;46.60;;;;;;5063501;28;20471;-66
2021/01/23 11:42:42;;;;;;;5.72;1.52;;;19.70;46.80;;;;;;5063634;28;20040;-67
2021/01/23 11:45:11;;;;;;;4.90;1.00;;;19.70;46.90;;;;;;5045138;28;20029;-66
2021/01/23 11:47:36;;;;;;;2.15;1.10;;;19.70;46.90;;;;;;5045652;28;20131;-67
2021/01/23 11:50:03;;;;;;;3.50;1.00;;;19.70;47.10;;;;;;5044746;28;20093;-65
2021/01/23 11:52:29;;;;;;;3.58;1.60;;;19.70;47.30;;;;;;5062926;28;20137;-66
2021/01/23 11:54:54;;;;;;;5.65;1.80;;;19.70;47.50;;;;;;5063466;28;20410;-65
2021/01/23 11:57:20;;;;;;;2.60;1.77;;;19.70;47.50;;;;;;5063055;28;20584;-64
2021/01/23 11:59:45;;;;;;;4.28;1.90;;;19.70;47.50;;;;;;5048217;28;20036;-65
2021/01/23 12:02:11;;;;;;;4.10;1.92;;;19.70;47.60;;;;;;5067078;28;20533;-66
2021/01/23 12:04:36;;;;;;;5.75;1.92;;;19.70;47.70;;;;;;5066646;28;20040;-65
2021/01/23 12:07:02;;;;;;;5.25;1.60;;;19.70;47.60;;;;;;5027145;28;20056;-66
2021/01/23 12:09:27;;;;;;;7.20;2.63;;;19.60;47.60;;;;;;5064983;28;20526;-65
2021/01/23 12:11:53;;;;;;;7.18;2.20;;;19.60;47.70;;;;;;5049772;28;20032;-66
2021/01/23 12:14:19;;;;;;;5.55;1.98;;;19.60;47.70;;;;;;5048092;28;20029;-66
2021/01/23 12:16:44;;;;;;;5.32;2.15;;;19.60;47.70;;;;;;5068075;28;20031;-65
2021/01/23 12:19:10;;;;;;;8.52;1.95;;;19.70;47.80;;;;;;5066934;28;20033;-66
2021/01/23 12:21:35;;;;;;;5.78;2.10;;;19.60;47.90;;;;;;5048119;28;20485;-65
2021/01/23 12:24:01;;;;;;;4.80;1.90;;;19.60;47.90;;;;;;5064094;28;20032;-64
2021/01/23 12:26:26;;;;;;;6.00;1.92;;;19.60;48.00;;;;;;5065465;28;20101;-66
2021/01/23 12:28:52;;;;;;;3.13;1.70;;;19.60;47.90;;;;;;5065613;28;20032;-66
2021/01/23 12:31:18;;;;;;;6.68;2.13;;;19.60;48.00;;;;;;5063421;28;20048;-65
2021/01/23 12:33:44;;;;;;;6.32;1.30;;;19.60;47.90;;;;;;5065002;28;20040;-67
2021/01/23 12:36:09;;;;;;;4.38;1.77;;;19.60;47.90;;;;;;5064549;28;20032;-65
2021/01/23 12:38:35;;;;;;;3.92;1.48;;;19.60;47.90;;;;;;5065194;28;20243;-66
2021/01/23 12:41:00;;;;;;;4.28;1.77;;;19.60;47.90;;;;;;5065647;28;20036;-67
2021/01/23 12:43:26;;;;;;;5.45;2.20;;;19.60;47.90;;;;;;5064723;28;20040;-66
2021/01/23 12:45:51;;;;;;;6.75;3.10;;;19.60;47.90;;;;;;5065103;28;20509;-68
2021/01/23 12:48:17;;;;;;;11.75;6.60;;;19.60;48.00;;;;;;5065692;28;20082;-66